ΕΜΥ, Εθνική Μετεωρολογική Υπηρεσία - Δελτία Καιρού, Προγνώσεις

ΑΕΡΟΝΑΥΤΙΛΙΑ

GREEK AIRPORTS CODES

TAF LGAD 221100Z 2212/2221 16010KT 9999 SCT020 BKN080 PROB40 TEMPO 2212/2221 5000 RA=

EUROPEAN AIRPORTS CODES

EBBR 221150Z 25007KT 9999 FEW012 06/02 Q0994 NOSIG=